Buoy 53524

sailwx.info

Track history (hours):
 
Tides and Currents Weather Stations Pressure Air Temp Water Temp Dewpoint Dewpoint Depression Visibility Wind Speed Wind Dir Waves Ship Positions

Drifting buoy 53524

Last reported at 2015-Apr-27 13:00 UTC. Time now 2015-Apr-27 22:13 UTC.
Position S 14°17' E 076°03'.

Barometer 1011.2 mb
Water temperature 28.7 ° C

Date/timePositionNaut miles runAvg speedWind from/ knotsBaromVisibWave heightAir tempDewpointWater temp
2015-Apr-27 13:00S 14°17' E 076°03'2 0.5 1011.2 28.7
2015-Apr-27 10:00S 14°16' E 076°05'4 0.6 1010.3 28.8
2015-Apr-27 04:00S 14°17' E 076°09'1 0.3 1013.4 28.6
2015-Apr-27 02:00S 14°18' E 076°09'1 1.3 1012.2 28.6
2015-Apr-27 01:00S 14°17' E 076°10'2 0.4 1011.5 28.6
2015-Apr-26 19:00S 14°17' E 076°13'7 0.5 1011.6 28.6
2015-Apr-26 05:00S 14°17' E 076°20'0 0.2 1012.8 28.6
2015-Apr-26 03:00S 14°17' E 076°20'0 0.1 1012.0 28.6
2015-Apr-26 01:00S 14°17' E 076°20'2 1.0 1011.3 28.5
2015-Apr-25 23:00S 14°16' E 076°22'2 0.6 1010.5 28.6
2015-Apr-25 20:00S 14°17' E 076°24'0 0.0 1010.8 28.6
2015-Apr-25 19:00S 14°17' E 076°24'1 0.2 1011.6 28.6
2015-Apr-25 16:00S 14°17' E 076°24'10 0.6 1011.9 28.6
2015-Apr-25 00:00S 14°14' E 076°34'1 1.0 1010.5 28.7
2015-Apr-24 23:00S 14°15' E 076°35'0 0.0 1010.4 28.7
2015-Apr-24 22:00S 14°15' E 076°35'2 1.1 1010.7 28.8
2015-Apr-24 20:00S 14°16' E 076°37'1 1.2 1011.6 28.7
2015-Apr-24 19:00S 14°15' E 076°36'6 0.6 1012.6 28.7
2015-Apr-24 09:00S 14°16' E 076°42'0 0.0 1011.1 28.8
2015-Apr-24 05:00S 14°16' E 076°42'1 0.3 1015.5 28.8
2015-Apr-24 02:00S 14°15' E 076°43'2 1.8 1014.2 28.8
2015-Apr-24 01:00S 14°14' E 076°44'0 0.4 1013.5 28.8
2015-Apr-24 00:00S 14°15' E 076°45'1 1.1 1012.1 -0.1
2015-Apr-23 23:00S 14°14' E 076°46'0 0.0 1012.1 28.8
2015-Apr-23 22:00S 14°14' E 076°46'3 1.3 1012.2 28.8
2015-Apr-23 20:00S 14°15' E 076°48'0 0.0 1012.5 28.8
2015-Apr-23 17:00S 14°15' E 076°48'0 0.2 1013.6 28.9
2015-Apr-23 16:00S 14°15' E 076°48'2 0.8 1013.5 28.9
2015-Apr-23 13:00S 14°15' E 076°51'1 1.2 1011.8 28.9
2015-Apr-23 12:00S 14°14' E 076°52'3 0.9 1010.9 29.0
2015-Apr-23 09:00S 14°15' E 076°55'12 0.5 1010.4 29.0
2015-Apr-22 09:00S 14°18' E 077°06'1 0.3 1009.4 29.0
2015-Apr-22 04:00S 14°18' E 077°08'3 0.8 1012.4 28.9
2015-Apr-22 00:00S 14°17' E 077°11'6 0.7 1009.5 28.9
2015-Apr-21 15:00S 14°18' E 077°17'5 0.7 1011.2 28.9
2015-Apr-21 08:00S 14°20' E 077°22'4 3.6 1010.3 28.9
2015-Apr-21 07:00S 14°21' E 077°25'6 0.4 1010.9 28.9
2015-Apr-20 16:00S 14°25' E 077°30'0 0.1 1013.3 28.9
2015-Apr-20 11:00S 14°25' E 077°30'0 0.3 1010.4 29.0
2015-Apr-20 10:00S 14°25' E 077°30'2 1.0 1010.2 29.0
2015-Apr-20 08:00S 14°25' E 077°32'3 0.4 1010.9 29.0
2015-Apr-20 00:00S 14°24' E 077°35'2 0.7 1010.8 28.9
2015-Apr-19 21:00S 14°24' E 077°37'7 0.7 1010.2 28.9
2015-Apr-19 11:00S 14°26' E 077°45'4 1.2 1009.0 29.2
2015-Apr-19 08:00S 14°29' E 077°47'4 0.3 1009.5 29.3
2015-Apr-18 18:00S 14°32' E 077°49'0 0.1 1010.4 28.9
2015-Apr-18 16:00S 14°32' E 077°49'1 1.1 1010.8 28.9
2015-Apr-18 15:00S 14°32' E 077°50'0 0.1 1010.3 29.0
2015-Apr-18 12:00S 14°32' E 077°50'1 0.4 1008.3 29.0
2015-Apr-18 10:00S 14°32' E 077°51'2 0.3 1007.7 29.1
2015-Apr-18 04:00S 14°32' E 077°53'   1011.5 28.9
Track history (hours):
 
Tides and Currents Weather Stations Pressure Air Temp Water Temp Dewpoint Dewpoint Depression Visibility Wind Speed Wind Dir Waves Ship Positions

Drifting buoy 53524

Last reported at 2015-Apr-27 13:00 UTC. Time now 2015-Apr-27 22:13 UTC.
Position S 14°17' E 076°03'.

Barometer 1011.2 mb
Water temperature 28.7 ° C

Date/timePositionNaut miles runAvg speedWind from/ knotsBaromVisibWave heightAir tempDewpointWater temp
2015-Apr-27 13:00S 14°17' E 076°03'2 0.5 1011.2 28.7
2015-Apr-27 10:00S 14°16' E 076°05'4 0.6 1010.3 28.8
2015-Apr-27 04:00S 14°17' E 076°09'1 0.3 1013.4 28.6
2015-Apr-27 02:00S 14°18' E 076°09'1 1.3 1012.2 28.6
2015-Apr-27 01:00S 14°17' E 076°10'2 0.4 1011.5 28.6
2015-Apr-26 19:00S 14°17' E 076°13'7 0.5 1011.6 28.6
2015-Apr-26 05:00S 14°17' E 076°20'0 0.2 1012.8 28.6
2015-Apr-26 03:00S 14°17' E 076°20'0 0.1 1012.0 28.6
2015-Apr-26 01:00S 14°17' E 076°20'2 1.0 1011.3 28.5
2015-Apr-25 23:00S 14°16' E 076°22'2 0.6 1010.5 28.6
2015-Apr-25 20:00S 14°17' E 076°24'0 0.0 1010.8 28.6
2015-Apr-25 19:00S 14°17' E 076°24'1 0.2 1011.6 28.6
2015-Apr-25 16:00S 14°17' E 076°24'10 0.6 1011.9 28.6
2015-Apr-25 00:00S 14°14' E 076°34'1 1.0 1010.5 28.7
2015-Apr-24 23:00S 14°15' E 076°35'0 0.0 1010.4 28.7
2015-Apr-24 22:00S 14°15' E 076°35'2 1.1 1010.7 28.8
2015-Apr-24 20:00S 14°16' E 076°37'1 1.2 1011.6 28.7
2015-Apr-24 19:00S 14°15' E 076°36'6 0.6 1012.6 28.7
2015-Apr-24 09:00S 14°16' E 076°42'0 0.0 1011.1 28.8
2015-Apr-24 05:00S 14°16' E 076°42'1 0.3 1015.5 28.8
2015-Apr-24 02:00S 14°15' E 076°43'2 1.8 1014.2 28.8
2015-Apr-24 01:00S 14°14' E 076°44'0 0.4 1013.5 28.8
2015-Apr-24 00:00S 14°15' E 076°45'1 1.1 1012.1 -0.1
2015-Apr-23 23:00S 14°14' E 076°46'0 0.0 1012.1 28.8
2015-Apr-23 22:00S 14°14' E 076°46'3 1.3 1012.2 28.8
2015-Apr-23 20:00S 14°15' E 076°48'0 0.0 1012.5 28.8
2015-Apr-23 17:00S 14°15' E 076°48'0 0.2 1013.6 28.9
2015-Apr-23 16:00S 14°15' E 076°48'2 0.8 1013.5 28.9
2015-Apr-23 13:00S 14°15' E 076°51'1 1.2 1011.8 28.9
2015-Apr-23 12:00S 14°14' E 076°52'3 0.9 1010.9 29.0
2015-Apr-23 09:00S 14°15' E 076°55'12 0.5 1010.4 29.0
2015-Apr-22 09:00S 14°18' E 077°06'1 0.3 1009.4 29.0
2015-Apr-22 04:00S 14°18' E 077°08'3 0.8 1012.4 28.9
2015-Apr-22 00:00S 14°17' E 077°11'6 0.7 1009.5 28.9
2015-Apr-21 15:00S 14°18' E 077°17'5 0.7 1011.2 28.9
2015-Apr-21 08:00S 14°20' E 077°22'4 3.6 1010.3 28.9
2015-Apr-21 07:00S 14°21' E 077°25'6 0.4 1010.9 28.9
2015-Apr-20 16:00S 14°25' E 077°30'0 0.1 1013.3 28.9
2015-Apr-20 11:00S 14°25' E 077°30'0 0.3 1010.4 29.0
2015-Apr-20 10:00S 14°25' E 077°30'2 1.0 1010.2 29.0
2015-Apr-20 08:00S 14°25' E 077°32'3 0.4 1010.9 29.0
2015-Apr-20 00:00S 14°24' E 077°35'2 0.7 1010.8 28.9
2015-Apr-19 21:00S 14°24' E 077°37'7 0.7 1010.2 28.9
2015-Apr-19 11:00S 14°26' E 077°45'4 1.2 1009.0 29.2
2015-Apr-19 08:00S 14°29' E 077°47'4 0.3 1009.5 29.3
2015-Apr-18 18:00S 14°32' E 077°49'0 0.1 1010.4 28.9
2015-Apr-18 16:00S 14°32' E 077°49'1 1.1 1010.8 28.9
2015-Apr-18 15:00S 14°32' E 077°50'0 0.1 1010.3 29.0
2015-Apr-18 12:00S 14°32' E 077°50'1 0.4 1008.3 29.0
2015-Apr-18 10:00S 14°32' E 077°51'2 0.3 1007.7 29.1
2015-Apr-18 04:00S 14°32' E 077°53'   1011.5 28.9

Dump ship's entire track history